createdAt,value
2017-04-03T00:00:06.423Z,1028.63
2017-04-03T00:05:06.390Z,1028.63
2017-04-03T00:10:06.368Z,1028.64
2017-04-03T00:15:06.344Z,1028.63
2017-04-03T00:20:06.321Z,1028.65
2017-04-03T00:25:06.301Z,1028.67
2017-04-03T00:30:06.280Z,1028.6
2017-04-03T00:35:06.260Z,1028.65
2017-04-03T00:40:06.229Z,1028.62
2017-04-03T00:45:06.208Z,1028.63
2017-04-03T00:50:06.182Z,1028.63
2017-04-03T00:55:06.163Z,1028.68
2017-04-03T01:00:06.129Z,1028.69
2017-04-03T01:05:06.137Z,1028.68
2017-04-03T01:10:06.085Z,1028.61
2017-04-03T01:15:06.147Z,1028.65
2017-04-03T01:20:06.033Z,1028.67
2017-04-03T01:25:06.006Z,1028.68
2017-04-03T01:30:05.979Z,1028.66
2017-04-03T01:35:05.951Z,1028.72
2017-04-03T01:40:05.924Z,1028.75
2017-04-03T01:45:05.897Z,1028.78
2017-04-03T01:50:05.879Z,1028.8
2017-04-03T01:55:05.849Z,1028.8
2017-04-03T02:00:05.825Z,1028.81
2017-04-03T02:05:05.803Z,1028.78
2017-04-03T02:10:05.777Z,1028.79
2017-04-03T02:15:05.752Z,1028.8
2017-04-03T02:20:05.731Z,1028.8
2017-04-03T02:25:05.701Z,1028.82
2017-04-03T02:30:05.675Z,1028.85
2017-04-03T02:35:05.647Z,1028.84
2017-04-03T02:40:05.623Z,1028.89
2017-04-03T02:45:05.599Z,1028.95
2017-04-03T02:50:05.571Z,1028.98
2017-04-03T02:55:05.563Z,1028.99
2017-04-03T03:00:05.521Z,1029
2017-04-03T03:05:05.491Z,1028.94
2017-04-03T03:10:05.473Z,1028.95
2017-04-03T03:15:05.442Z,1028.95
2017-04-03T03:20:05.419Z,1028.99
2017-04-03T03:25:05.391Z,1028.96
2017-04-03T03:30:05.365Z,1028.96
2017-04-03T03:35:05.345Z,1029
2017-04-03T03:40:05.323Z,1028.99
2017-04-03T03:45:05.286Z,1028.92
2017-04-03T03:50:05.264Z,1028.92
2017-04-03T03:55:05.237Z,1028.97
2017-04-03T04:00:05.209Z,1028.97
2017-04-03T04:05:05.178Z,1028.98
2017-04-03T04:10:05.156Z,1029.01
2017-04-03T04:15:05.129Z,1029.05
2017-04-03T04:20:05.104Z,1029.04
2017-04-03T04:25:05.074Z,1029.08
2017-04-03T04:30:05.050Z,1029.12
2017-04-03T04:35:05.020Z,1029.11
2017-04-03T04:40:04.990Z,1029.14
2017-04-03T04:45:04.958Z,1029.19
2017-04-03T04:50:04.987Z,1029.19
2017-04-03T04:55:04.912Z,1029.29
2017-04-03T05:00:04.923Z,1029.26
2017-04-03T05:05:04.846Z,1029.28
2017-04-03T05:10:04.816Z,1029.27
2017-04-03T05:15:04.791Z,1029.37
2017-04-03T05:20:04.764Z,1029.33
2017-04-03T05:25:04.734Z,1029.38
2017-04-03T05:30:04.698Z,1029.46
2017-04-03T05:35:04.676Z,1029.54
2017-04-03T05:40:04.645Z,1029.6
2017-04-03T05:45:04.614Z,1029.65
2017-04-03T05:50:04.576Z,1029.71
2017-04-03T05:55:04.540Z,1029.76
2017-04-03T06:00:04.507Z,1029.75
2017-04-03T06:05:04.487Z,1029.75
2017-04-03T06:10:04.447Z,1029.76
2017-04-03T06:15:04.523Z,1029.82
2017-04-03T06:20:04.384Z,1029.81
2017-04-03T06:25:04.357Z,1029.9
2017-04-03T06:30:04.323Z,1029.99
2017-04-03T06:35:04.287Z,1030.03
2017-04-03T06:40:04.259Z,1030.09
2017-04-03T06:45:04.223Z,1030.06
2017-04-03T06:50:04.194Z,1030.06
2017-04-03T06:55:04.169Z,1030.12
2017-04-03T07:00:04.133Z,1030.16
2017-04-03T07:05:04.136Z,1030.18
2017-04-03T07:10:04.069Z,1030.22
2017-04-03T07:15:04.039Z,1030.26
2017-04-03T07:20:04.005Z,1030.29
2017-04-03T07:25:03.977Z,1030.29
2017-04-03T07:30:03.946Z,1030.28
2017-04-03T07:35:03.916Z,1030.35
2017-04-03T07:40:03.889Z,1030.39
2017-04-03T07:45:03.861Z,1030.38
2017-04-03T07:50:03.829Z,1030.34
2017-04-03T07:55:03.796Z,1030.31
2017-04-03T08:00:03.764Z,1030.27
2017-04-03T08:05:03.746Z,1030.21
2017-04-03T08:10:03.708Z,1030.29
2017-04-03T08:15:03.675Z,1030.3
2017-04-03T08:20:03.645Z,1030.37
2017-04-03T08:25:03.626Z,1030.44
2017-04-03T08:30:03.587Z,1030.4
2017-04-03T08:35:03.551Z,1030.46
2017-04-03T08:40:03.527Z,1030.43
2017-04-03T08:45:03.504Z,1030.46
2017-04-03T08:50:03.481Z,1030.44
2017-04-03T08:55:03.452Z,1030.32
2017-04-03T09:00:03.427Z,1030.39
2017-04-03T09:05:03.401Z,1030.39
2017-04-03T09:10:03.382Z,1030.39
2017-04-03T09:15:03.358Z,1030.39
2017-04-03T09:20:03.342Z,1030.42
2017-04-03T09:25:03.310Z,1030.45
2017-04-03T09:30:03.294Z,1030.4
2017-04-03T09:35:03.270Z,1030.45
2017-04-03T09:40:03.311Z,1030.52
2017-04-03T09:45:03.244Z,1030.6
2017-04-03T09:50:03.238Z,1030.53
2017-04-03T09:55:03.218Z,1030.58
2017-04-03T10:00:03.218Z,1030.53
2017-04-03T10:05:03.195Z,1030.5
2017-04-03T10:10:03.176Z,1030.47
2017-04-03T10:15:03.160Z,1030.55
2017-04-03T10:20:03.149Z,1030.52
2017-04-03T10:25:03.130Z,1030.55
2017-04-03T10:30:03.114Z,1030.64
2017-04-03T10:35:03.104Z,1030.66
2017-04-03T10:40:03.099Z,1030.59
2017-04-03T10:45:03.087Z,1030.51
2017-04-03T10:50:03.079Z,1030.57
2017-04-03T10:55:03.069Z,1030.38
2017-04-03T11:00:03.078Z,1030.35
2017-04-03T11:05:03.056Z,1030.27
2017-04-03T11:10:03.047Z,1030.23
2017-04-03T11:15:03.037Z,1030.19
2017-04-03T11:20:03.028Z,1030.17
2017-04-03T11:25:03.035Z,1030.14
2017-04-03T11:30:03.051Z,1030.06
2017-04-03T11:35:03.012Z,1030.01
2017-04-03T11:40:02.997Z,1029.97
2017-04-03T11:45:02.989Z,1029.86
2017-04-03T11:50:02.955Z,1029.94
2017-04-03T11:55:02.916Z,1029.9
2017-04-03T12:00:02.856Z,1029.85
2017-04-03T12:05:02.813Z,1029.85
2017-04-03T12:10:02.767Z,1029.8
2017-04-03T12:15:02.716Z,1029.81
2017-04-03T12:20:02.675Z,1029.71
2017-04-03T12:25:02.629Z,1029.63
2017-04-03T12:30:02.579Z,1029.58
2017-04-03T12:35:02.534Z,1029.51
2017-04-03T12:40:02.512Z,1029.49
2017-04-03T12:45:02.442Z,1029.43
2017-04-03T12:50:02.403Z,1029.36
2017-04-03T12:55:02.351Z,1029.3
2017-04-03T13:00:02.302Z,1029.26
2017-04-03T13:05:02.262Z,1029.23
2017-04-03T13:10:02.207Z,1029.28
2017-04-03T13:15:02.154Z,1029.25
2017-04-03T13:20:02.108Z,1029.22
2017-04-03T13:25:02.059Z,1029.16
2017-04-03T13:30:02.007Z,1029.18
2017-04-03T13:35:01.960Z,1029.14
2017-04-03T13:40:01.905Z,1029.08
2017-04-03T13:45:01.848Z,1029.02
2017-04-03T13:50:01.796Z,1028.96
2017-04-03T13:55:01.740Z,1028.93
2017-04-03T14:00:01.690Z,1028.89
2017-04-03T14:05:01.633Z,1028.84
2017-04-03T14:10:01.589Z,1028.73
2017-04-03T14:15:01.526Z,1028.7
2017-04-03T14:20:01.465Z,1028.67
2017-04-03T14:25:01.408Z,1028.65
2017-04-03T14:30:01.349Z,1028.63
2017-04-03T14:35:01.326Z,1028.65
2017-04-03T14:40:01.302Z,1028.62
2017-04-03T14:45:01.280Z,1028.62
2017-04-03T14:50:01.257Z,1028.54
2017-04-03T14:55:01.251Z,1028.47
2017-04-03T15:00:01.179Z,1028.47
2017-04-03T15:05:01.201Z,1028.38
2017-04-03T15:10:01.035Z,1028.34
2017-04-03T15:15:00.997Z,1028.31
2017-04-03T15:20:00.917Z,1028.27
2017-04-03T15:25:00.855Z,1028.22
2017-04-03T15:30:00.793Z,1028.17
2017-04-03T15:35:00.732Z,1028.08
2017-04-03T15:40:00.672Z,1028.09
2017-04-03T15:45:00.611Z,1028.05
2017-04-03T15:50:00.542Z,1028.02
2017-04-03T15:55:00.476Z,1027.94
2017-04-03T16:00:00.418Z,1027.93
2017-04-03T16:05:00.359Z,1027.83
2017-04-03T16:10:00.289Z,1027.79
2017-04-03T16:15:00.230Z,1027.73
2017-04-03T16:20:00.161Z,1027.7
2017-04-03T16:25:00.095Z,1027.7
2017-04-03T16:30:00.056Z,1027.67
2017-04-03T16:34:59.974Z,1027.64
2017-04-03T16:39:59.910Z,1027.57
2017-04-03T16:44:59.842Z,1027.67
2017-04-03T16:49:59.785Z,1027.64
2017-04-03T16:54:59.718Z,1027.65
2017-04-03T16:59:59.643Z,1027.63
2017-04-03T17:04:59.571Z,1027.58
2017-04-03T17:09:59.505Z,1027.57
2017-04-03T17:14:59.496Z,1027.58
2017-04-03T17:19:59.372Z,1027.58
2017-04-03T17:24:59.417Z,1027.62
2017-04-03T17:29:59.251Z,1027.57
2017-04-03T17:34:59.172Z,1027.56
2017-04-03T17:39:59.108Z,1027.57
2017-04-03T17:44:59.071Z,1027.51
2017-04-03T17:49:59.033Z,1027.46
2017-04-03T17:54:58.998Z,1027.47
2017-04-03T17:59:58.967Z,1027.55
2017-04-03T18:04:58.934Z,1027.51
2017-04-03T21:20:09.599Z,1027.5
2017-04-03T21:25:09.554Z,1027.48
